sensor_id;sensor_type;location;lat;lon;timestamp;temperature;humidity
7574;DHT22;3828;48.922;9.116;2022-12-18T00:02:13;-8.90;99.90
7574;DHT22;3828;48.922;9.116;2022-12-18T00:04:40;-9.10;99.90
7574;DHT22;3828;48.922;9.116;2022-12-18T00:07:07;-9.10;99.90
7574;DHT22;3828;48.922;9.116;2022-12-18T00:09:34;-9.20;99.90
7574;DHT22;3828;48.922;9.116;2022-12-18T00:12:01;-9.30;99.90
7574;DHT22;3828;48.922;9.116;2022-12-18T00:14:29;-5.30;99.90
7574;DHT22;3828;48.922;9.116;2022-12-18T00:16:56;-9.40;99.90
7574;DHT22;3828;48.922;9.116;2022-12-18T00:19:26;-9.40;99.90
7574;DHT22;3828;48.922;9.116;2022-12-18T00:21:53;-9.40;99.90
7574;DHT22;3828;48.922;9.116;2022-12-18T00:24:20;-9.30;99.90
7574;DHT22;3828;48.922;9.116;2022-12-18T00:26:47;-8.70;99.90
7574;DHT22;3828;48.922;9.116;2022-12-18T00:29:14;-9.30;99.90
7574;DHT22;3828;48.922;9.116;2022-12-18T00:34:10;-9.40;99.90
7574;DHT22;3828;48.922;9.116;2022-12-18T00:36:38;-9.40;99.90
7574;DHT22;3828;48.922;9.116;2022-12-18T00:39:07;-9.30;99.90
7574;DHT22;3828;48.922;9.116;2022-12-18T00:41:35;-9.40;99.90
7574;DHT22;3828;48.922;9.116;2022-12-18T00:44:22;-9.40;99.90
7574;DHT22;3828;48.922;9.116;2022-12-18T00:49:18;-9.20;99.90
7574;DHT22;3828;48.922;9.116;2022-12-18T00:51:45;-9.20;99.90
7574;DHT22;3828;48.922;9.116;2022-12-18T00:54:12;-9.20;99.90
7574;DHT22;3828;48.922;9.116;2022-12-18T00:56:39;-9.20;99.90
7574;DHT22;3828;48.922;9.116;2022-12-18T00:59:07;-9.20;99.90
7574;DHT22;3828;48.922;9.116;2022-12-18T01:01:34;-6.00;99.90
7574;DHT22;3828;48.922;9.116;2022-12-18T01:04:03;-9.20;99.90
7574;DHT22;3828;48.922;9.116;2022-12-18T01:06:32;-9.20;99.90
7574;DHT22;3828;48.922;9.116;2022-12-18T01:08:59;-8.90;99.90
7574;DHT22;3828;48.922;9.116;2022-12-18T01:11:26;-9.10;99.90
7574;DHT22;3828;48.922;9.116;2022-12-18T01:13:53;-9.20;99.90
7574;DHT22;3828;48.922;9.116;2022-12-18T01:16:21;-9.10;99.90
7574;DHT22;3828;48.922;9.116;2022-12-18T01:18:51;-9.10;99.90
7574;DHT22;3828;48.922;9.116;2022-12-18T01:21:20;-9.10;99.90
7574;DHT22;3828;48.922;9.116;2022-12-18T01:23:51;-9.10;99.90
7574;DHT22;3828;48.922;9.116;2022-12-18T01:26:18;-9.10;99.90
7574;DHT22;3828;48.922;9.116;2022-12-18T01:28:45;-9.10;99.90
7574;DHT22;3828;48.922;9.116;2022-12-18T01:31:15;-9.20;99.90
7574;DHT22;3828;48.922;9.116;2022-12-18T01:33:43;-9.20;99.90
7574;DHT22;3828;48.922;9.116;2022-12-18T01:36:22;-9.20;99.90
7574;DHT22;3828;48.922;9.116;2022-12-18T01:38:50;-9.10;99.90
7574;DHT22;3828;48.922;9.116;2022-12-18T01:41:20;-9.20;99.90
7574;DHT22;3828;48.922;9.116;2022-12-18T01:43:53;-9.20;99.90
7574;DHT22;3828;48.922;9.116;2022-12-18T01:46:22;-9.00;99.90
7574;DHT22;3828;48.922;9.116;2022-12-18T01:48:54;-9.10;99.90
7574;DHT22;3828;48.922;9.116;2022-12-18T01:51:24;-9.10;99.90
7574;DHT22;3828;48.922;9.116;2022-12-18T01:53:52;-9.20;99.90
7574;DHT22;3828;48.922;9.116;2022-12-18T01:56:21;-9.30;99.90
7574;DHT22;3828;48.922;9.116;2022-12-18T01:58:54;-9.30;99.90
7574;DHT22;3828;48.922;9.116;2022-12-18T02:01:22;-9.30;99.90
7574;DHT22;3828;48.922;9.116;2022-12-18T02:03:50;-9.30;99.90
7574;DHT22;3828;48.922;9.116;2022-12-18T02:06:21;-9.30;99.90
7574;DHT22;3828;48.922;9.116;2022-12-18T02:08:58;-9.30;99.90
7574;DHT22;3828;48.922;9.116;2022-12-18T02:11:37;-9.20;99.90
7574;DHT22;3828;48.922;9.116;2022-12-18T02:14:16;-9.20;99.90
7574;DHT22;3828;48.922;9.116;2022-12-18T02:16:48;-9.20;99.90
7574;DHT22;3828;48.922;9.116;2022-12-18T02:19:40;-9.30;99.90
7574;DHT22;3828;48.922;9.116;2022-12-18T02:22:22;-9.20;99.90
7574;DHT22;3828;48.922;9.116;2022-12-18T02:25:00;-9.20;99.90
7574;DHT22;3828;48.922;9.116;2022-12-18T02:27:33;-9.20;99.90
7574;DHT22;3828;48.922;9.116;2022-12-18T02:30:07;-9.40;99.90
7574;DHT22;3828;48.922;9.116;2022-12-18T02:32:38;-9.40;99.90
7574;DHT22;3828;48.922;9.116;2022-12-18T02:35:10;-9.40;99.90
7574;DHT22;3828;48.922;9.116;2022-12-18T02:37:39;-9.30;99.90
7574;DHT22;3828;48.922;9.116;2022-12-18T02:40:08;-9.10;99.90
7574;DHT22;3828;48.922;9.116;2022-12-18T02:42:37;-8.90;99.90
7574;DHT22;3828;48.922;9.116;2022-12-18T02:45:05;-9.70;99.90
7574;DHT22;3828;48.922;9.116;2022-12-18T02:47:36;-8.70;99.90
7574;DHT22;3828;48.922;9.116;2022-12-18T02:50:09;-8.80;99.90
7574;DHT22;3828;48.922;9.116;2022-12-18T02:52:49;-8.60;99.90
7574;DHT22;3828;48.922;9.116;2022-12-18T02:55:27;-6.70;99.90
7574;DHT22;3828;48.922;9.116;2022-12-18T02:58:00;-8.40;99.90
7574;DHT22;3828;48.922;9.116;2022-12-18T03:00:33;-8.20;99.90
7574;DHT22;3828;48.922;9.116;2022-12-18T03:03:06;-8.10;99.90
7574;DHT22;3828;48.922;9.116;2022-12-18T03:05:39;-8.00;99.90
7574;DHT22;3828;48.922;9.116;2022-12-18T03:08:10;-8.10;99.90
7574;DHT22;3828;48.922;9.116;2022-12-18T03:10:41;-8.00;99.90
7574;DHT22;3828;48.922;9.116;2022-12-18T03:13:15;-8.10;99.90
7574;DHT22;3828;48.922;9.116;2022-12-18T03:15:46;-8.00;99.90
7574;DHT22;3828;48.922;9.116;2022-12-18T03:18:18;-8.00;99.90
7574;DHT22;3828;48.922;9.116;2022-12-18T03:20:48;-8.00;99.90
7574;DHT22;3828;48.922;9.116;2022-12-18T03:23:20;-7.90;99.90
7574;DHT22;3828;48.922;9.116;2022-12-18T03:25:49;-7.90;99.90
7574;DHT22;3828;48.922;9.116;2022-12-18T03:28:20;-7.90;99.90
7574;DHT22;3828;48.922;9.116;2022-12-18T03:30:50;-7.90;99.90
7574;DHT22;3828;48.922;9.116;2022-12-18T03:33:21;-7.90;99.90
7574;DHT22;3828;48.922;9.116;2022-12-18T03:35:50;-8.10;99.90
7574;DHT22;3828;48.922;9.116;2022-12-18T03:38:17;-5.90;99.90
7574;DHT22;3828;48.922;9.116;2022-12-18T03:40:51;-8.00;99.90
7574;DHT22;3828;48.922;9.116;2022-12-18T03:43:30;-8.00;99.90
7574;DHT22;3828;48.922;9.116;2022-12-18T03:46:02;-8.10;99.90
7574;DHT22;3828;48.922;9.116;2022-12-18T03:48:34;-8.00;99.90
7574;DHT22;3828;48.922;9.116;2022-12-18T03:51:07;-7.80;99.90
7574;DHT22;3828;48.922;9.116;2022-12-18T03:53:41;-7.70;99.90
7574;DHT22;3828;48.922;9.116;2022-12-18T03:56:10;-7.50;99.90
7574;DHT22;3828;48.922;9.116;2022-12-18T03:58:40;-7.50;99.90
7574;DHT22;3828;48.922;9.116;2022-12-18T04:01:12;-7.30;99.90
7574;DHT22;3828;48.922;9.116;2022-12-18T04:03:41;-7.20;99.90
7574;DHT22;3828;48.922;9.116;2022-12-18T04:06:10;-7.20;99.90
7574;DHT22;3828;48.922;9.116;2022-12-18T04:08:38;-7.20;99.90
7574;DHT22;3828;48.922;9.116;2022-12-18T04:11:08;-7.20;99.90
7574;DHT22;3828;48.922;9.116;2022-12-18T04:13:37;-7.20;99.90
7574;DHT22;3828;48.922;9.116;2022-12-18T04:16:07;-7.10;99.90
7574;DHT22;3828;48.922;9.116;2022-12-18T04:18:34;-7.20;99.90
7574;DHT22;3828;48.922;9.116;2022-12-18T04:21:02;-7.10;99.90
7574;DHT22;3828;48.922;9.116;2022-12-18T04:23:29;-5.60;99.90
7574;DHT22;3828;48.922;9.116;2022-12-18T04:25:56;-7.10;99.90
7574;DHT22;3828;48.922;9.116;2022-12-18T04:30:50;-7.20;99.90
7574;DHT22;3828;48.922;9.116;2022-12-18T04:33:19;-7.20;99.90
7574;DHT22;3828;48.922;9.116;2022-12-18T04:35:48;-7.20;99.90
7574;DHT22;3828;48.922;9.116;2022-12-18T04:38:15;-7.20;99.90
7574;DHT22;3828;48.922;9.116;2022-12-18T04:40:42;-7.30;99.90
7574;DHT22;3828;48.922;9.116;2022-12-18T04:43:09;-7.20;99.90
7574;DHT22;3828;48.922;9.116;2022-12-18T04:45:37;-7.20;99.90
7574;DHT22;3828;48.922;9.116;2022-12-18T04:48:04;-7.30;99.90
7574;DHT22;3828;48.922;9.116;2022-12-18T04:50:33;-7.30;99.90
7574;DHT22;3828;48.922;9.116;2022-12-18T04:53:00;-7.30;99.90
7574;DHT22;3828;48.922;9.116;2022-12-18T04:55:27;-7.30;99.90
7574;DHT22;3828;48.922;9.116;2022-12-18T04:57:54;-5.30;99.90
7574;DHT22;3828;48.922;9.116;2022-12-18T05:00:21;-7.30;99.90
7574;DHT22;3828;48.922;9.116;2022-12-18T05:02:48;-7.30;99.90
7574;DHT22;3828;48.922;9.116;2022-12-18T05:05:16;-7.40;99.90
7574;DHT22;3828;48.922;9.116;2022-12-18T05:10:12;-7.60;99.90
7574;DHT22;3828;48.922;9.116;2022-12-18T05:12:39;-7.50;99.90
7574;DHT22;3828;48.922;9.116;2022-12-18T05:15:24;-7.60;99.90
7574;DHT22;3828;48.922;9.116;2022-12-18T05:17:53;-5.00;99.90
7574;DHT22;3828;48.922;9.116;2022-12-18T05:20:20;-7.70;99.90
7574;DHT22;3828;48.922;9.116;2022-12-18T05:22:48;-7.70;99.90
7574;DHT22;3828;48.922;9.116;2022-12-18T05:25:16;-7.80;99.90
7574;DHT22;3828;48.922;9.116;2022-12-18T05:27:54;-7.80;99.90
7574;DHT22;3828;48.922;9.116;2022-12-18T05:30:21;-7.80;99.90
7574;DHT22;3828;48.922;9.116;2022-12-18T05:33:02;-7.60;99.90
7574;DHT22;3828;48.922;9.116;2022-12-18T05:35:29;-7.80;99.90
7574;DHT22;3828;48.922;9.116;2022-12-18T05:37:57;-5.80;99.90
7574;DHT22;3828;48.922;9.116;2022-12-18T05:40:24;-7.70;99.90
7574;DHT22;3828;48.922;9.116;2022-12-18T05:42:51;-7.80;99.90
7574;DHT22;3828;48.922;9.116;2022-12-18T05:45:18;-6.00;99.90
7574;DHT22;3828;48.922;9.116;2022-12-18T05:47:45;-4.00;99.90
7574;DHT22;3828;48.922;9.116;2022-12-18T05:50:17;-7.80;99.90
7574;DHT22;3828;48.922;9.116;2022-12-18T05:52:44;-7.70;99.90
7574;DHT22;3828;48.922;9.116;2022-12-18T05:55:12;-7.70;99.90
7574;DHT22;3828;48.922;9.116;2022-12-18T05:57:39;-7.80;99.90
7574;DHT22;3828;48.922;9.116;2022-12-18T06:00:07;-7.80;99.90
7574;DHT22;3828;48.922;9.116;2022-12-18T06:02:34;-7.90;99.90
7574;DHT22;3828;48.922;9.116;2022-12-18T06:05:00;-7.90;99.90
7574;DHT22;3828;48.922;9.116;2022-12-18T06:07:27;-7.80;99.90
7574;DHT22;3828;48.922;9.116;2022-12-18T06:09:54;-8.00;99.90
7574;DHT22;3828;48.922;9.116;2022-12-18T06:12:22;-8.10;99.90
7574;DHT22;3828;48.922;9.116;2022-12-18T06:14:49;-8.00;99.90
7574;DHT22;3828;48.922;9.116;2022-12-18T06:17:16;-5.90;99.90
7574;DHT22;3828;48.922;9.116;2022-12-18T06:19:43;-8.20;99.90
7574;DHT22;3828;48.922;9.116;2022-12-18T06:22:10;-8.20;99.90
7574;DHT22;3828;48.922;9.116;2022-12-18T06:24:37;-8.40;99.90
7574;DHT22;3828;48.922;9.116;2022-12-18T06:27:05;-8.20;99.90
7574;DHT22;3828;48.922;9.116;2022-12-18T06:32:00;-8.30;99.90
7574;DHT22;3828;48.922;9.116;2022-12-18T06:34:27;-8.30;99.90
7574;DHT22;3828;48.922;9.116;2022-12-18T06:36:54;-8.30;99.90
7574;DHT22;3828;48.922;9.116;2022-12-18T06:39:21;-8.30;99.90
7574;DHT22;3828;48.922;9.116;2022-12-18T06:41:51;-8.30;99.90
7574;DHT22;3828;48.922;9.116;2022-12-18T06:44:18;-8.40;99.90
7574;DHT22;3828;48.922;9.116;2022-12-18T06:49:14;-8.40;99.90
7574;DHT22;3828;48.922;9.116;2022-12-18T06:51:42;-8.50;99.90
7574;DHT22;3828;48.922;9.116;2022-12-18T06:54:10;-8.40;99.90
7574;DHT22;3828;48.922;9.116;2022-12-18T06:56:37;-8.40;99.90
7574;DHT22;3828;48.922;9.116;2022-12-18T06:59:04;-8.50;99.90
7574;DHT22;3828;48.922;9.116;2022-12-18T07:01:31;-8.50;99.90
7574;DHT22;3828;48.922;9.116;2022-12-18T07:03:59;-8.60;99.90
7574;DHT22;3828;48.922;9.116;2022-12-18T07:06:26;-8.60;99.90
7574;DHT22;3828;48.922;9.116;2022-12-18T07:08:54;-8.50;99.90
7574;DHT22;3828;48.922;9.116;2022-12-18T07:11:21;-8.60;99.90
7574;DHT22;3828;48.922;9.116;2022-12-18T07:13:49;-8.60;99.90
7574;DHT22;3828;48.922;9.116;2022-12-18T07:16:16;-8.60;99.90
7574;DHT22;3828;48.922;9.116;2022-12-18T07:18:44;-8.50;99.90
7574;DHT22;3828;48.922;9.116;2022-12-18T07:21:15;-8.60;99.90
7574;DHT22;3828;48.922;9.116;2022-12-18T07:23:42;-8.50;99.90
7574;DHT22;3828;48.922;9.116;2022-12-18T07:26:10;-8.50;99.90
7574;DHT22;3828;48.922;9.116;2022-12-18T07:28:38;-7.00;99.90
7574;DHT22;3828;48.922;9.116;2022-12-18T07:31:07;-5.40;99.90
7574;DHT22;3828;48.922;9.116;2022-12-18T07:33:34;-8.40;99.90
7574;DHT22;3828;48.922;9.116;2022-12-18T07:36:03;-8.50;99.90
7574;DHT22;3828;48.922;9.116;2022-12-18T07:38:33;-8.40;99.90
7574;DHT22;3828;48.922;9.116;2022-12-18T07:41:01;-8.50;99.90
7574;DHT22;3828;48.922;9.116;2022-12-18T07:43:28;-8.50;99.90
7574;DHT22;3828;48.922;9.116;2022-12-18T07:45:55;-8.30;99.90
7574;DHT22;3828;48.922;9.116;2022-12-18T07:48:22;-5.90;99.90
7574;DHT22;3828;48.922;9.116;2022-12-18T07:50:49;-8.70;99.90
7574;DHT22;3828;48.922;9.116;2022-12-18T07:53:16;-8.60;99.90
7574;DHT22;3828;48.922;9.116;2022-12-18T07:55:45;-8.50;99.90
7574;DHT22;3828;48.922;9.116;2022-12-18T07:58:11;-5.20;99.90
7574;DHT22;3828;48.922;9.116;2022-12-18T08:00:40;-8.40;99.90
7574;DHT22;3828;48.922;9.116;2022-12-18T08:05:34;-8.30;99.90
7574;DHT22;3828;48.922;9.116;2022-12-18T08:08:01;-8.30;99.90
7574;DHT22;3828;48.922;9.116;2022-12-18T08:10:28;-8.20;99.90
7574;DHT22;3828;48.922;9.116;2022-12-18T08:15:25;-8.00;99.90
7574;DHT22;3828;48.922;9.116;2022-12-18T08:17:52;-7.90;99.90
7574;DHT22;3828;48.922;9.116;2022-12-18T08:20:19;-7.80;99.90
7574;DHT22;3828;48.922;9.116;2022-12-18T08:22:46;-7.80;99.90
7574;DHT22;3828;48.922;9.116;2022-12-18T08:25:13;-7.70;99.90
7574;DHT22;3828;48.922;9.116;2022-12-18T08:30:11;-7.30;99.90
7574;DHT22;3828;48.922;9.116;2022-12-18T08:32:38;-7.50;99.90
7574;DHT22;3828;48.922;9.116;2022-12-18T08:37:34;-7.30;99.90
7574;DHT22;3828;48.922;9.116;2022-12-18T08:40:02;-7.30;99.90
7574;DHT22;3828;48.922;9.116;2022-12-18T08:42:30;-7.20;99.90
7574;DHT22;3828;48.922;9.116;2022-12-18T08:45:16;-7.00;99.90
7574;DHT22;3828;48.922;9.116;2022-12-18T08:47:43;-4.50;99.90
7574;DHT22;3828;48.922;9.116;2022-12-18T08:50:11;-4.30;99.90
7574;DHT22;3828;48.922;9.116;2022-12-18T08:52:42;-6.90;99.90
7574;DHT22;3828;48.922;9.116;2022-12-18T08:55:16;-6.70;99.90
7574;DHT22;3828;48.922;9.116;2022-12-18T08:57:43;-3.40;99.90
7574;DHT22;3828;48.922;9.116;2022-12-18T09:00:18;-6.60;99.90
7574;DHT22;3828;48.922;9.116;2022-12-18T09:05:13;-6.40;99.90
7574;DHT22;3828;48.922;9.116;2022-12-18T09:07:40;-6.40;99.90
7574;DHT22;3828;48.922;9.116;2022-12-18T09:10:07;-4.00;99.90
7574;DHT22;3828;48.922;9.116;2022-12-18T09:12:35;-4.80;99.90
7574;DHT22;3828;48.922;9.116;2022-12-18T09:15:12;-4.20;99.90
7574;DHT22;3828;48.922;9.116;2022-12-18T09:20:14;-6.00;99.90
7574;DHT22;3828;48.922;9.116;2022-12-18T09:22:41;-6.00;99.90
7574;DHT22;3828;48.922;9.116;2022-12-18T09:25:13;-5.90;99.90
7574;DHT22;3828;48.922;9.116;2022-12-18T09:27:46;-3.00;99.90
7574;DHT22;3828;48.922;9.116;2022-12-18T09:30:14;-2.40;99.90
7574;DHT22;3828;48.922;9.116;2022-12-18T09:32:42;-5.60;99.90
7574;DHT22;3828;48.922;9.116;2022-12-18T09:35:10;-2.80;99.90
7574;DHT22;3828;48.922;9.116;2022-12-18T09:37:38;-4.50;99.90
7574;DHT22;3828;48.922;9.116;2022-12-18T09:40:05;-5.30;99.90
7574;DHT22;3828;48.922;9.116;2022-12-18T09:42:33;-5.10;99.90
7574;DHT22;3828;48.922;9.116;2022-12-18T09:47:29;-4.80;99.90
7574;DHT22;3828;48.922;9.116;2022-12-18T09:50:02;-4.50;99.90
7574;DHT22;3828;48.922;9.116;2022-12-18T09:52:34;-4.70;99.90
7574;DHT22;3828;48.922;9.116;2022-12-18T09:55:09;-4.40;99.90
7574;DHT22;3828;48.922;9.116;2022-12-18T09:57:47;-4.00;99.90
7574;DHT22;3828;48.922;9.116;2022-12-18T10:00:19;0.10;99.90
7574;DHT22;3828;48.922;9.116;2022-12-18T10:02:47;-2.20;99.90
7574;DHT22;3828;48.922;9.116;2022-12-18T10:05:19;0.50;99.90
7574;DHT22;3828;48.922;9.116;2022-12-18T10:07:57;0.00;99.90
7574;DHT22;3828;48.922;9.116;2022-12-18T10:10:35;1.00;99.90
7574;DHT22;3828;48.922;9.116;2022-12-18T10:13:09;1.90;99.90
7574;DHT22;3828;48.922;9.116;2022-12-18T10:15:50;3.50;99.90
7574;DHT22;3828;48.922;9.116;2022-12-18T10:18:28;3.70;99.90
7574;DHT22;3828;48.922;9.116;2022-12-18T10:21:07;4.50;99.90
7574;DHT22;3828;48.922;9.116;2022-12-18T10:23:39;3.10;99.90
7574;DHT22;3828;48.922;9.116;2022-12-18T10:26:10;3.50;99.90
7574;DHT22;3828;48.922;9.116;2022-12-18T10:28:40;3.90;99.90
7574;DHT22;3828;48.922;9.116;2022-12-18T10:31:07;4.60;99.90
7574;DHT22;3828;48.922;9.116;2022-12-18T10:33:39;7.30;99.90
7574;DHT22;3828;48.922;9.116;2022-12-18T10:36:08;7.80;99.90
7574;DHT22;3828;48.922;9.116;2022-12-18T10:38:38;4.70;99.90
7574;DHT22;3828;48.922;9.116;2022-12-18T10:41:06;6.30;99.90
7574;DHT22;3828;48.922;9.116;2022-12-18T10:43:37;5.80;99.90
7574;DHT22;3828;48.922;9.116;2022-12-18T10:46:12;4.80;99.90
7574;DHT22;3828;48.922;9.116;2022-12-18T10:48:48;8.30;99.90
7574;DHT22;3828;48.922;9.116;2022-12-18T10:51:24;5.70;99.90
7574;DHT22;3828;48.922;9.116;2022-12-18T10:53:58;6.40;99.90
7574;DHT22;3828;48.922;9.116;2022-12-18T10:56:28;5.20;99.90
7574;DHT22;3828;48.922;9.116;2022-12-18T10:58:59;5.10;99.90
7574;DHT22;3828;48.922;9.116;2022-12-18T11:01:27;4.70;99.90
7574;DHT22;3828;48.922;9.116;2022-12-18T11:04:07;4.20;99.90
7574;DHT22;3828;48.922;9.116;2022-12-18T11:06:54;7.30;99.90
7574;DHT22;3828;48.922;9.116;2022-12-18T11:09:24;2.90;99.90
7574;DHT22;3828;48.922;9.116;2022-12-18T11:11:52;2.20;99.90
7574;DHT22;3828;48.922;9.116;2022-12-18T11:14:22;3.60;99.90
7574;DHT22;3828;48.922;9.116;2022-12-18T11:16:52;4.00;99.90
7574;DHT22;3828;48.922;9.116;2022-12-18T11:19:30;0.90;99.90
7574;DHT22;3828;48.922;9.116;2022-12-18T11:22:01;3.50;99.90
7574;DHT22;3828;48.922;9.116;2022-12-18T11:24:31;2.80;99.90
7574;DHT22;3828;48.922;9.116;2022-12-18T11:27:01;0.10;99.90
7574;DHT22;3828;48.922;9.116;2022-12-18T11:29:33;0.00;99.90
7574;DHT22;3828;48.922;9.116;2022-12-18T11:32:27;3.90;99.90
7574;DHT22;3828;48.922;9.116;2022-12-18T11:35:01;0.20;99.90
7574;DHT22;3828;48.922;9.116;2022-12-18T11:37:31;4.10;99.90
7574;DHT22;3828;48.922;9.116;2022-12-18T11:40:01;0.20;99.90
7574;DHT22;3828;48.922;9.116;2022-12-18T11:42:35;0.60;99.90
7574;DHT22;3828;48.922;9.116;2022-12-18T11:45:23;1.50;99.90
7574;DHT22;3828;48.922;9.116;2022-12-18T11:47:56;-0.30;99.90
7574;DHT22;3828;48.922;9.116;2022-12-18T11:50:26;-0.30;99.90
7574;DHT22;3828;48.922;9.116;2022-12-18T11:52:56;2.50;99.90
7574;DHT22;3828;48.922;9.116;2022-12-18T11:55:30;-0.30;99.90
7574;DHT22;3828;48.922;9.116;2022-12-18T11:58:04;-0.20;99.90
7574;DHT22;3828;48.922;9.116;2022-12-18T12:00:36;-0.10;99.90
7574;DHT22;3828;48.922;9.116;2022-12-18T12:03:17;2.30;99.90
7574;DHT22;3828;48.922;9.116;2022-12-18T12:06:01;-0.40;99.90
7574;DHT22;3828;48.922;9.116;2022-12-18T12:08:44;-0.50;99.90
7574;DHT22;3828;48.922;9.116;2022-12-18T12:11:20;2.80;99.90
7574;DHT22;3828;48.922;9.116;2022-12-18T12:14:00;-0.40;99.90
7574;DHT22;3828;48.922;9.116;2022-12-18T12:16:35;-0.40;99.90
7574;DHT22;3828;48.922;9.116;2022-12-18T12:19:17;-0.40;99.90
7574;DHT22;3828;48.922;9.116;2022-12-18T12:21:49;-0.30;99.90
7574;DHT22;3828;48.922;9.116;2022-12-18T12:24:31;-0.30;99.90
7574;DHT22;3828;48.922;9.116;2022-12-18T12:27:08;2.50;99.90
7574;DHT22;3828;48.922;9.116;2022-12-18T12:29:46;-0.20;99.90
7574;DHT22;3828;48.922;9.116;2022-12-18T12:32:28;0.00;99.90
7574;DHT22;3828;48.922;9.116;2022-12-18T12:35:08;0.10;99.90
7574;DHT22;3828;48.922;9.116;2022-12-18T12:37:47;0.10;99.90
7574;DHT22;3828;48.922;9.116;2022-12-18T12:40:19;0.20;99.90
7574;DHT22;3828;48.922;9.116;2022-12-18T12:42:52;0.00;99.90
7574;DHT22;3828;48.922;9.116;2022-12-18T12:45:42;3.40;99.90
7574;DHT22;3828;48.922;9.116;2022-12-18T12:48:18;2.50;99.90
7574;DHT22;3828;48.922;9.116;2022-12-18T12:50:46;0.00;99.90
7574;DHT22;3828;48.922;9.116;2022-12-18T12:53:22;0.40;99.90
7574;DHT22;3828;48.922;9.116;2022-12-18T12:55:54;3.60;99.90
7574;DHT22;3828;48.922;9.116;2022-12-18T12:58:28;0.60;99.90
7574;DHT22;3828;48.922;9.116;2022-12-18T13:01:04;0.60;99.90
7574;DHT22;3828;48.922;9.116;2022-12-18T13:03:45;0.50;99.90
7574;DHT22;3828;48.922;9.116;2022-12-18T13:06:30;0.50;99.90
7574;DHT22;3828;48.922;9.116;2022-12-18T13:08:59;4.00;99.90
7574;DHT22;3828;48.922;9.116;2022-12-18T13:11:37;0.60;99.90
7574;DHT22;3828;48.922;9.116;2022-12-18T13:14:25;0.40;99.90
7574;DHT22;3828;48.922;9.116;2022-12-18T13:17:15;0.40;99.90
7574;DHT22;3828;48.922;9.116;2022-12-18T13:19:42;0.40;99.90
7574;DHT22;3828;48.922;9.116;2022-12-18T13:22:21;3.60;99.90
7574;DHT22;3828;48.922;9.116;2022-12-18T13:24:48;0.30;99.90
7574;DHT22;3828;48.922;9.116;2022-12-18T13:27:51;3.70;99.90
7574;DHT22;3828;48.922;9.116;2022-12-18T13:30:52;0.30;99.90
7574;DHT22;3828;48.922;9.116;2022-12-18T13:33:49;0.20;99.90
7574;DHT22;3828;48.922;9.116;2022-12-18T13:36:31;0.30;99.90
7574;DHT22;3828;48.922;9.116;2022-12-18T13:39:24;0.30;99.90
7574;DHT22;3828;48.922;9.116;2022-12-18T13:41:53;0.20;99.90
7574;DHT22;3828;48.922;9.116;2022-12-18T13:44:32;1.40;99.90
7574;DHT22;3828;48.922;9.116;2022-12-18T13:46:59;0.20;99.90
7574;DHT22;3828;48.922;9.116;2022-12-18T13:49:36;0.10;99.90
7574;DHT22;3828;48.922;9.116;2022-12-18T13:52:16;0.10;99.90
7574;DHT22;3828;48.922;9.116;2022-12-18T13:54:49;0.10;99.90
7574;DHT22;3828;48.922;9.116;2022-12-18T13:57:28;1.80;99.90
7574;DHT22;3828;48.922;9.116;2022-12-18T13:59:58;-0.10;99.90
7574;DHT22;3828;48.922;9.116;2022-12-18T14:02:27;1.70;99.90
7574;DHT22;3828;48.922;9.116;2022-12-18T14:04:54;-0.20;99.90
7574;DHT22;3828;48.922;9.116;2022-12-18T14:07:23;-0.20;99.90
7574;DHT22;3828;48.922;9.116;2022-12-18T14:09:52;-0.30;99.90
7574;DHT22;3828;48.922;9.116;2022-12-18T14:12:23;-0.30;99.90
7574;DHT22;3828;48.922;9.116;2022-12-18T14:15:20;-0.60;99.90
7574;DHT22;3828;48.922;9.116;2022-12-18T14:17:49;-0.40;99.90
7574;DHT22;3828;48.922;9.116;2022-12-18T14:20:17;-0.60;99.90
7574;DHT22;3828;48.922;9.116;2022-12-18T14:22:45;-0.60;99.90
7574;DHT22;3828;48.922;9.116;2022-12-18T14:25:16;2.90;99.90
7574;DHT22;3828;48.922;9.116;2022-12-18T14:27:45;-0.80;99.90
7574;DHT22;3828;48.922;9.116;2022-12-18T14:30:28;-0.90;99.90
7574;DHT22;3828;48.922;9.116;2022-12-18T14:33:03;-1.00;99.90
7574;DHT22;3828;48.922;9.116;2022-12-18T14:35:30;-1.10;99.90
7574;DHT22;3828;48.922;9.116;2022-12-18T14:38:10;-1.10;99.90
7574;DHT22;3828;48.922;9.116;2022-12-18T14:40:38;-1.20;99.90
7574;DHT22;3828;48.922;9.116;2022-12-18T14:43:04;-1.30;99.90
7574;DHT22;3828;48.922;9.116;2022-12-18T14:45:37;-1.30;99.90
7574;DHT22;3828;48.922;9.116;2022-12-18T14:48:07;-1.30;99.90
7574;DHT22;3828;48.922;9.116;2022-12-18T14:50:34;-1.40;99.90
7574;DHT22;3828;48.922;9.116;2022-12-18T14:53:01;-1.50;99.90
7574;DHT22;3828;48.922;9.116;2022-12-18T14:55:27;-1.50;99.90
7574;DHT22;3828;48.922;9.116;2022-12-18T14:57:55;-1.60;99.90
7574;DHT22;3828;48.922;9.116;2022-12-18T15:00:24;1.90;99.90
7574;DHT22;3828;48.922;9.116;2022-12-18T15:02:54;-1.80;99.90
7574;DHT22;3828;48.922;9.116;2022-12-18T15:05:26;-1.80;99.90
7574;DHT22;3828;48.922;9.116;2022-12-18T15:07:54;-1.90;99.90
7574;DHT22;3828;48.922;9.116;2022-12-18T15:10:23;-1.90;99.90
7574;DHT22;3828;48.922;9.116;2022-12-18T15:13:07;-2.00;99.90
7574;DHT22;3828;48.922;9.116;2022-12-18T15:15:50;-2.20;99.90
7574;DHT22;3828;48.922;9.116;2022-12-18T15:18:19;-2.10;99.90
7574;DHT22;3828;48.922;9.116;2022-12-18T15:20:49;-2.10;99.90
7574;DHT22;3828;48.922;9.116;2022-12-18T15:23:18;-2.10;99.90
7574;DHT22;3828;48.922;9.116;2022-12-18T15:25:54;-2.10;99.90
7574;DHT22;3828;48.922;9.116;2022-12-18T15:28:24;0.00;99.90
7574;DHT22;3828;48.922;9.116;2022-12-18T15:30:59;-2.20;99.90
7574;DHT22;3828;48.922;9.116;2022-12-18T15:33:31;-2.20;99.90
7574;DHT22;3828;48.922;9.116;2022-12-18T15:35:59;1.10;99.90
7574;DHT22;3828;48.922;9.116;2022-12-18T15:38:27;-2.30;99.90
7574;DHT22;3828;48.922;9.116;2022-12-18T15:40:54;-2.40;99.90
7574;DHT22;3828;48.922;9.116;2022-12-18T15:43:23;1.10;99.90
7574;DHT22;3828;48.922;9.116;2022-12-18T15:46:03;-2.40;99.90
7574;DHT22;3828;48.922;9.116;2022-12-18T15:48:34;1.30;99.90
7574;DHT22;3828;48.922;9.116;2022-12-18T15:51:02;-2.40;99.90
7574;DHT22;3828;48.922;9.116;2022-12-18T15:53:31;-0.40;99.90
7574;DHT22;3828;48.922;9.116;2022-12-18T15:55:59;-2.50;99.90
7574;DHT22;3828;48.922;9.116;2022-12-18T15:58:43;-2.60;99.90
7574;DHT22;3828;48.922;9.116;2022-12-18T16:01:10;-2.60;99.90
7574;DHT22;3828;48.922;9.116;2022-12-18T16:03:41;-2.60;99.90
7574;DHT22;3828;48.922;9.116;2022-12-18T16:06:09;-2.60;99.90
7574;DHT22;3828;48.922;9.116;2022-12-18T16:08:35;-2.60;99.90
7574;DHT22;3828;48.922;9.116;2022-12-18T16:11:02;-2.60;99.90
7574;DHT22;3828;48.922;9.116;2022-12-18T16:13:29;-2.60;99.90
7574;DHT22;3828;48.922;9.116;2022-12-18T16:15:57;-2.60;99.90
7574;DHT22;3828;48.922;9.116;2022-12-18T16:18:24;-2.60;99.90
7574;DHT22;3828;48.922;9.116;2022-12-18T16:20:52;-2.60;99.90
7574;DHT22;3828;48.922;9.116;2022-12-18T16:23:19;-2.60;99.90
7574;DHT22;3828;48.922;9.116;2022-12-18T16:25:46;-2.70;99.90
7574;DHT22;3828;48.922;9.116;2022-12-18T16:28:13;-2.70;99.90
7574;DHT22;3828;48.922;9.116;2022-12-18T16:30:40;-2.90;99.90
7574;DHT22;3828;48.922;9.116;2022-12-18T16:33:08;-2.80;99.90
7574;DHT22;3828;48.922;9.116;2022-12-18T16:35:36;-2.80;99.90
7574;DHT22;3828;48.922;9.116;2022-12-18T16:38:04;-2.90;99.90
7574;DHT22;3828;48.922;9.116;2022-12-18T16:40:32;-2.90;99.90
7574;DHT22;3828;48.922;9.116;2022-12-18T16:43:19;-1.30;99.90
7574;DHT22;3828;48.922;9.116;2022-12-18T16:45:45;-2.90;99.90
7574;DHT22;3828;48.922;9.116;2022-12-18T16:48:12;-2.90;99.90
7574;DHT22;3828;48.922;9.116;2022-12-18T16:50:39;-2.90;99.90
7574;DHT22;3828;48.922;9.116;2022-12-18T16:53:07;-2.90;99.90
7574;DHT22;3828;48.922;9.116;2022-12-18T16:55:34;-2.90;99.90
7574;DHT22;3828;48.922;9.116;2022-12-18T16:58:01;-3.00;99.90
7574;DHT22;3828;48.922;9.116;2022-12-18T17:00:29;-3.00;99.90
7574;DHT22;3828;48.922;9.116;2022-12-18T17:02:56;-2.90;99.90